Time;durP1;ratioP1;P1;durP2;ratioP2;P2;SDS_P1;SDS_P2;PMS_P1;PMS_P2;Temp;Humidity;BMP_temperature;BMP_pressure;BME280_temperature;BME280_humidity;BME280_pressure;Samples;Min_cycle;Max_cycle;Signal;HPM_P1;HPM_P2
2024/03/14 00:02:02;;;;;;;5.55;1.40;;;27.30;39.70;;;;;;5126789;27;20077;-51
2024/03/14 00:04:28;;;;;;;3.22;1.17;;;27.30;39.30;;;;;;5113490;28;20158;-48
2024/03/14 00:06:57;;;;;;;3.67;1.13;;;27.40;39.00;;;;;;5119401;28;20510;-48
2024/03/14 00:09:23;;;;;;;6.95;1.40;;;27.60;38.00;;;;;;5123871;28;20084;-49
2024/03/14 00:11:50;;;;;;;4.88;1.90;;;27.10;37.50;;;;;;5127078;28;20126;-47
2024/03/14 00:14:16;;;;;;;3.95;1.60;;;26.90;37.80;;;;;;5097449;27;20079;-50
2024/03/14 00:16:43;;;;;;;4.05;1.15;;;26.90;37.90;;;;;;5116931;28;20134;-53
2024/03/14 00:19:09;;;;;;;6.03;1.50;;;26.80;37.90;;;;;;5114407;28;20121;-52
2024/03/14 00:21:41;;;;;;;7.28;1.35;;;26.90;38.70;;;;;;5109099;28;20064;-50
2024/03/14 00:24:08;;;;;;;11.10;1.50;;;26.80;39.00;;;;;;5111072;28;20064;-49
2024/03/14 00:26:35;;;;;;;8.13;1.50;;;26.90;38.90;;;;;;5106231;28;20104;-52
2024/03/14 00:29:01;;;;;;;4.00;1.17;;;26.80;39.00;;;;;;5106768;27;20068;-49
2024/03/14 00:31:29;;;;;;;10.13;1.83;;;26.70;39.70;;;;;;5116433;27;20221;-51
2024/03/14 00:33:56;;;;;;;19.27;2.47;;;26.70;39.70;;;;;;5110070;27;20538;-51
2024/03/14 00:36:22;;;;;;;6.15;1.27;;;26.80;39.60;;;;;;5133179;27;20079;-50
2024/03/14 00:38:49;;;;;;;5.47;1.00;;;26.50;39.60;;;;;;5134344;27;20100;-52
2024/03/14 00:41:15;;;;;;;3.88;1.42;;;26.30;40.10;;;;;;5113808;27;20071;-53
2024/03/14 00:43:42;;;;;;;4.10;1.08;;;26.20;40.10;;;;;;5110418;28;20084;-51
2024/03/14 00:46:11;;;;;;;7.32;1.42;;;26.00;40.30;;;;;;5127834;27;20075;-51
2024/03/14 00:48:38;;;;;;;8.93;1.60;;;25.80;40.70;;;;;;5135420;27;20473;-50
2024/03/14 00:51:06;;;;;;;10.45;1.48;;;25.80;40.80;;;;;;5135378;27;20141;-52
2024/03/14 00:53:34;;;;;;;12.48;2.90;;;25.90;41.20;;;;;;5117180;27;20137;-49
2024/03/14 00:56:01;;;;;;;8.38;1.50;;;25.90;41.60;;;;;;5113286;28;20170;-49
2024/03/14 00:58:28;;;;;;;3.97;1.23;;;25.80;41.20;;;;;;5113376;28;20076;-48
2024/03/14 01:00:55;;;;;;;7.72;1.50;;;25.60;41.30;;;;;;5112323;28;20414;-49
2024/03/14 01:03:21;;;;;;;10.50;1.88;;;25.50;41.40;;;;;;5126052;27;20107;-48
2024/03/14 01:05:47;;;;;;;8.23;1.40;;;25.40;42.10;;;;;;5135154;27;20079;-51
2024/03/14 01:08:14;;;;;;;5.47;1.42;;;25.20;42.30;;;;;;5118523;27;20519;-50
2024/03/14 01:10:40;;;;;;;7.82;1.40;;;25.20;41.60;;;;;;5113129;28;20183;-54
2024/03/14 01:13:07;;;;;;;6.82;1.50;;;25.20;41.90;;;;;;5111207;27;20095;-51
2024/03/14 01:15:33;;;;;;;6.60;1.50;;;25.00;41.60;;;;;;5122478;27;20158;-48
2024/03/14 01:18:00;;;;;;;10.32;1.95;;;24.90;41.80;;;;;;5134769;27;20175;-47
2024/03/14 01:20:26;;;;;;;9.40;1.90;;;24.90;42.10;;;;;;5124449;27;20064;-47
2024/03/14 01:22:56;;;;;;;14.70;1.75;;;24.80;42.00;;;;;;5110135;27;20117;-51
2024/03/14 01:25:24;;;;;;;7.38;1.40;;;24.70;42.00;;;;;;5117545;27;20585;-55
2024/03/14 01:27:51;;;;;;;7.57;1.50;;;24.60;41.80;;;;;;5118375;27;20068;-49
2024/03/14 01:30:18;;;;;;;10.05;2.05;;;24.50;42.00;;;;;;5122235;27;20103;-50
2024/03/14 01:32:44;;;;;;;24.55;2.67;;;24.40;42.30;;;;;;5122935;27;20406;-54
2024/03/14 01:35:11;;;;;;;14.45;2.05;;;24.40;42.50;;;;;;5124709;27;20063;-52
2024/03/14 01:37:39;;;;;;;14.05;2.30;;;24.30;42.50;;;;;;5120103;27;20078;-50
2024/03/14 01:40:06;;;;;;;5.85;1.88;;;24.20;43.30;;;;;;5125373;27;20060;-51
2024/03/14 01:42:32;;;;;;;9.25;1.60;;;24.10;43.30;;;;;;5123481;27;20429;-52
2024/03/14 01:45:01;;;;;;;7.70;1.85;;;24.00;43.70;;;;;;5115465;27;20498;-54
2024/03/14 01:47:27;;;;;;;12.27;3.00;;;23.90;43.50;;;;;;5118473;27;20401;-51
2024/03/14 01:49:55;;;;;;;12.13;2.72;;;23.80;44.20;;;;;;5119876;27;20606;-51
2024/03/14 01:52:24;;;;;;;15.27;2.40;;;23.70;44.40;;;;;;5113744;27;20078;-53
2024/03/14 01:54:50;;;;;;;11.07;2.28;;;23.60;44.40;;;;;;5110377;27;20155;-50
2024/03/14 01:57:19;;;;;;;14.70;2.35;;;23.50;44.70;;;;;;5111483;27;20530;-47
2024/03/14 01:59:49;;;;;;;18.85;2.55;;;23.50;45.20;;;;;;5113894;27;20097;-48
2024/03/14 02:02:17;;;;;;;16.13;2.40;;;23.40;45.40;;;;;;5117384;27;20559;-47
2024/03/14 02:04:58;;;;;;;18.75;2.70;;;23.30;45.50;;;;;;5129595;27;20162;-49
2024/03/14 02:07:31;;;;;;;15.27;2.35;;;23.30;45.50;;;;;;5133820;27;20539;-47
2024/03/14 02:09:58;;;;;;;14.10;2.28;;;23.20;45.50;;;;;;5122831;27;20092;-56
2024/03/14 02:12:24;;;;;;;15.50;2.90;;;23.20;45.90;;;;;;5111910;27;20147;-51
2024/03/14 02:14:50;;;;;;;10.55;2.50;;;23.10;46.00;;;;;;5118519;27;20155;-51
2024/03/14 02:17:17;;;;;;;17.20;2.47;;;23.10;46.20;;;;;;5111477;28;20096;-48
2024/03/14 02:19:43;;;;;;;15.55;2.47;;;23.00;46.40;;;;;;5111890;28;20108;-49
2024/03/14 02:22:21;;;;;;;15.85;2.92;;;22.90;46.50;;;;;;5110908;27;20416;-52
2024/03/14 02:24:51;;;;;;;26.48;3.30;;;22.70;46.80;;;;;;5117903;27;20422;-50
2024/03/14 02:27:19;;;;;;;24.13;2.78;;;22.60;47.20;;;;;;5126053;27;20068;-49
2024/03/14 02:29:46;;;;;;;20.83;2.60;;;22.60;47.40;;;;;;5110286;27;20067;-48
2024/03/14 02:32:12;;;;;;;20.20;2.70;;;22.50;47.50;;;;;;5110682;28;20072;-46
2024/03/14 02:34:39;;;;;;;15.43;2.20;;;22.50;47.80;;;;;;5111623;27;20538;-49
2024/03/14 02:37:05;;;;;;;15.00;2.90;;;22.50;48.10;;;;;;5122284;27;20072;-48
2024/03/14 02:39:32;;;;;;;23.52;3.38;;;22.40;47.90;;;;;;5113040;28;20525;-47
2024/03/14 02:42:02;;;;;;;20.33;3.03;;;22.40;48.10;;;;;;5092180;28;20084;-52
2024/03/14 02:44:28;;;;;;;19.63;2.63;;;22.30;48.60;;;;;;5096071;27;20072;-49
2024/03/14 02:46:56;;;;;;;15.23;2.85;;;22.30;49.30;;;;;;5108331;27;20108;-51
2024/03/14 02:49:22;;;;;;;18.45;4.07;;;22.30;48.90;;;;;;5117019;27;20475;-50
2024/03/14 02:51:49;;;;;;;14.50;4.18;;;22.20;48.70;;;;;;5119377;27;20481;-52
2024/03/14 02:54:16;;;;;;;15.63;4.97;;;22.10;48.70;;;;;;5101361;27;20099;-52
2024/03/14 02:56:46;;;;;;;35.70;5.22;;;22.10;48.40;;;;;;5132788;27;20076;-50
2024/03/14 02:59:13;;;;;;;20.58;4.45;;;22.10;48.80;;;;;;5131064;27;20068;-48
2024/03/14 03:01:40;;;;;;;25.38;5.13;;;22.10;48.90;;;;;;5133140;27;20075;-49
2024/03/14 03:04:09;;;;;;;26.75;4.97;;;22.00;49.30;;;;;;5133415;27;20059;-50
2024/03/14 03:06:36;;;;;;;29.83;4.97;;;22.00;49.40;;;;;;5115363;27;20072;-51
2024/03/14 03:09:05;;;;;;;27.17;5.00;;;21.90;49.30;;;;;;5128353;27;20070;-52
2024/03/14 03:11:34;;;;;;;17.67;4.68;;;21.90;50.00;;;;;;5127047;27;20174;-53
2024/03/14 03:14:00;;;;;;;25.17;4.70;;;21.80;49.90;;;;;;5121036;27;20084;-47
2024/03/14 03:16:27;;;;;;;28.35;4.95;;;21.80;50.40;;;;;;5095685;28;20091;-51
2024/03/14 03:18:53;;;;;;;35.50;5.78;;;21.70;50.20;;;;;;5110474;27;20117;-50
2024/03/14 03:21:20;;;;;;;22.75;5.32;;;21.60;50.80;;;;;;5113696;27;20525;-48
2024/03/14 03:23:48;;;;;;;26.77;7.28;;;21.60;51.00;;;;;;5115662;27;20121;-50
2024/03/14 03:26:14;;;;;;;31.30;5.88;;;21.40;51.60;;;;;;5097826;28;20131;-47
2024/03/14 03:28:41;;;;;;;25.45;6.03;;;21.40;52.40;;;;;;5094835;28;20151;-48
2024/03/14 03:31:10;;;;;;;25.48;6.68;;;21.30;52.10;;;;;;5109678;28;20103;-51
2024/03/14 03:33:36;;;;;;;30.65;6.97;;;21.30;52.60;;;;;;5124881;28;20083;-51
2024/03/14 03:36:06;;;;;;;31.10;7.05;;;21.10;52.80;;;;;;5128026;27;20064;-51
2024/03/14 03:38:39;;;;;;;40.63;7.43;;;21.10;52.60;;;;;;5114896;27;20571;-48
2024/03/14 03:41:12;;;;;;;47.55;8.50;;;21.00;53.00;;;;;;5112592;28;20074;-48
2024/03/14 03:43:38;;;;;;;48.25;7.93;;;20.90;54.70;;;;;;5118756;27;20103;-48
2024/03/14 03:46:06;;;;;;;43.20;7.97;;;20.90;54.50;;;;;;5123292;28;20072;-47
2024/03/14 03:48:42;;;;;;;36.85;7.80;;;20.80;54.10;;;;;;5115083;28;20080;-47
2024/03/14 03:51:12;;;;;;;40.53;8.25;;;20.80;53.50;;;;;;5126762;28;20126;-53
2024/03/14 03:53:38;;;;;;;33.05;7.75;;;20.80;53.10;;;;;;5110168;28;20105;-49
2024/03/14 03:56:05;;;;;;;26.30;6.60;;;20.80;53.50;;;;;;5105932;28;20181;-48
2024/03/14 03:58:32;;;;;;;36.70;6.93;;;20.80;53.70;;;;;;5109819;28;20078;-50
2024/03/14 04:01:12;;;;;;;39.08;6.50;;;20.80;53.10;;;;;;5108685;28;20117;-50
2024/03/14 04:03:41;;;;;;;28.73;6.97;;;20.80;53.60;;;;;;5111878;27;20071;-54
2024/03/14 04:06:13;;;;;;;34.42;7.43;;;20.80;54.10;;;;;;5113847;28;20072;-49
2024/03/14 04:08:39;;;;;;;27.42;7.28;;;20.70;53.40;;;;;;5107013;28;20086;-49
2024/03/14 04:11:09;;;;;;;42.15;12.45;;;20.70;52.90;;;;;;5112605;28;20095;-51
2024/03/14 04:13:36;;;;;;;52.53;12.85;;;20.80;52.30;;;;;;5114261;28;20574;-50
2024/03/14 04:16:03;;;;;;;59.17;12.50;;;20.80;52.20;;;;;;5116590;27;20068;-52
2024/03/14 04:18:31;;;;;;;47.25;10.15;;;20.90;51.80;;;;;;5130210;27;20076;-49
2024/03/14 04:20:57;;;;;;;51.20;10.18;;;20.90;51.60;;;;;;5136336;27;20067;-52
2024/03/14 04:23:27;;;;;;;67.88;12.20;;;21.00;51.50;;;;;;5135937;27;20064;-48
2024/03/14 04:25:54;;;;;;;81.88;13.50;;;21.00;51.60;;;;;;5134359;27;20206;-52
2024/03/14 04:28:23;;;;;;;59.50;12.02;;;20.90;52.30;;;;;;5136108;27;20068;-50
2024/03/14 04:30:53;;;;;;;63.00;13.57;;;20.90;52.40;;;;;;5136124;27;20191;-52
2024/03/14 04:33:20;;;;;;;69.93;15.70;;;20.80;52.60;;;;;;5136067;27;20067;-48
2024/03/14 04:35:46;;;;;;;66.53;15.73;;;20.80;51.90;;;;;;5135838;27;20064;-47
2024/03/14 04:38:13;;;;;;;61.67;14.38;;;20.80;52.30;;;;;;5136002;27;20098;-48
2024/03/14 04:40:40;;;;;;;42.00;10.40;;;20.70;52.60;;;;;;5135830;27;20064;-50
2024/03/14 04:43:09;;;;;;;36.97;9.02;;;20.70;53.40;;;;;;5135742;27;20405;-51
2024/03/14 04:45:35;;;;;;;42.55;8.73;;;20.70;54.30;;;;;;5135389;27;20498;-47
2024/03/14 04:48:04;;;;;;;44.15;8.40;;;20.70;54.90;;;;;;5135281;27;20075;-52
2024/03/14 04:50:31;;;;;;;37.40;8.32;;;20.70;55.60;;;;;;5135538;27;20140;-50
2024/03/14 04:52:57;;;;;;;44.75;7.32;;;20.60;56.00;;;;;;5135181;27;20060;-48
2024/03/14 04:55:24;;;;;;;30.85;6.78;;;20.50;56.60;;;;;;5135211;27;20068;-49
2024/03/14 04:57:50;;;;;;;40.65;7.10;;;20.50;57.10;;;;;;5135079;27;20071;-48
2024/03/14 05:02:47;;;;;;;29.35;5.70;;;21.00;57.90;;;;;;5135469;27;20095;-47
2024/03/14 05:05:15;;;;;;;28.33;5.90;;;21.60;57.70;;;;;;5135266;27;20055;-46
2024/03/14 05:07:42;;;;;;;21.48;4.97;;;22.20;55.60;;;;;;5135155;27;20059;-48
2024/03/14 05:10:09;;;;;;;21.20;5.10;;;22.50;56.20;;;;;;5134763;27;20223;-47
2024/03/14 05:12:36;;;;;;;17.88;3.92;;;23.00;55.70;;;;;;5134587;27;20067;-47
2024/03/14 05:15:07;;;;;;;11.60;3.67;;;22.80;56.10;;;;;;5120337;27;20077;-48
2024/03/14 05:17:34;;;;;;;16.70;3.97;;;22.60;57.10;;;;;;5114645;28;20071;-47
2024/03/14 05:20:01;;;;;;;14.32;3.80;;;22.60;57.70;;;;;;5114183;28;20091;-48
2024/03/14 05:22:33;;;;;;;14.73;3.50;;;22.70;57.90;;;;;;5114318;28;20071;-50
2024/03/14 05:25:06;;;;;;;14.32;2.72;;;22.40;58.90;;;;;;5114402;28;20118;-46
2024/03/14 05:27:33;;;;;;;10.98;2.72;;;22.10;59.80;;;;;;5112048;27;20072;-47
2024/03/14 05:30:00;;;;;;;13.02;2.45;;;21.80;61.20;;;;;;5112902;28;20080;-46
2024/03/14 05:32:29;;;;;;;9.25;2.30;;;21.70;61.90;;;;;;5114393;28;20060;-48
2024/03/14 05:34:57;;;;;;;14.02;2.80;;;21.50;62.90;;;;;;5114222;28;20095;-47
2024/03/14 05:37:26;;;;;;;12.63;3.58;;;21.50;63.50;;;;;;5113807;28;20068;-46
2024/03/14 05:39:53;;;;;;;12.45;3.25;;;21.40;63.90;;;;;;5114290;28;20377;-48
2024/03/14 05:42:20;;;;;;;16.17;3.55;;;21.50;63.90;;;;;;5114241;28;20068;-48
2024/03/14 05:44:50;;;;;;;24.52;15.55;;;21.50;64.40;;;;;;5108535;27;20071;-46
2024/03/14 05:47:16;;;;;;;22.58;7.45;;;21.60;64.00;;;;;;5112965;28;20537;-48
2024/03/14 05:49:43;;;;;;;20.27;8.15;;;21.50;64.60;;;;;;5111423;28;20546;-48
2024/03/14 05:52:13;;;;;;;10.45;4.10;;;21.40;65.30;;;;;;5108223;28;20076;-46
2024/03/14 05:54:39;;;;;;;16.63;5.05;;;21.30;65.60;;;;;;5112076;28;20204;-46
2024/03/14 05:57:06;;;;;;;16.67;5.47;;;21.40;65.80;;;;;;5112510;28;20421;-46
2024/03/14 05:59:35;;;;;;;13.27;3.70;;;21.40;65.80;;;;;;5113866;28;20056;-47
2024/03/14 06:02:01;;;;;;;12.15;3.22;;;21.50;66.00;;;;;;5113984;28;20231;-47
2024/03/14 06:04:28;;;;;;;9.90;3.38;;;21.60;66.00;;;;;;5113792;28;20110;-48
2024/03/14 06:06:56;;;;;;;12.73;2.58;;;21.30;66.20;;;;;;5111126;28;20072;-50
2024/03/14 06:09:32;;;;;;;15.27;3.03;;;21.40;66.20;;;;;;5113622;28;20160;-51
2024/03/14 06:11:59;;;;;;;12.95;2.88;;;21.50;66.20;;;;;;5113076;28;20563;-47
2024/03/14 06:14:26;;;;;;;13.25;3.22;;;21.40;66.30;;;;;;5113733;28;20139;-47
2024/03/14 06:16:52;;;;;;;9.52;2.50;;;21.50;66.30;;;;;;5110815;28;20068;-46
2024/03/14 06:19:21;;;;;;;11.65;3.28;;;21.30;66.20;;;;;;5113141;28;20076;-46
2024/03/14 06:21:50;;;;;;;12.68;3.03;;;21.00;67.00;;;;;;5113087;28;20072;-48
2024/03/14 06:24:16;;;;;;;12.10;3.17;;;20.90;67.20;;;;;;5113250;28;20064;-48
2024/03/14 06:26:45;;;;;;;19.52;3.30;;;21.10;67.00;;;;;;5113338;28;20111;-45
2024/03/14 06:29:12;;;;;;;9.50;2.90;;;21.00;66.80;;;;;;5111870;28;20121;-46
2024/03/14 06:31:38;;;;;;;16.40;3.30;;;21.00;67.00;;;;;;5110947;27;20105;-51
2024/03/14 06:34:05;;;;;;;8.68;2.80;;;21.00;67.30;;;;;;5113105;28;20105;-47
2024/03/14 06:36:31;;;;;;;13.90;2.80;;;20.90;67.40;;;;;;5112761;28;20438;-49
2024/03/14 06:38:58;;;;;;;15.98;3.35;;;20.80;67.70;;;;;;5111662;28;20068;-46
2024/03/14 06:41:25;;;;;;;15.15;2.80;;;20.80;68.00;;;;;;5106691;27;20079;-49
2024/03/14 06:43:51;;;;;;;13.85;3.85;;;20.60;68.20;;;;;;5104435;27;20073;-46
2024/03/14 06:46:20;;;;;;;11.88;3.33;;;20.50;68.70;;;;;;5090519;28;20068;-46
2024/03/14 06:48:46;;;;;;;10.88;2.67;;;20.40;69.80;;;;;;5123787;27;20533;-48
2024/03/14 06:51:12;;;;;;;10.77;2.85;;;20.40;69.50;;;;;;5133374;27;20102;-47
2024/03/14 06:53:39;;;;;;;12.30;3.55;;;20.30;69.80;;;;;;5133370;27;20074;-46
2024/03/14 06:56:08;;;;;;;16.75;3.70;;;20.10;70.50;;;;;;5120779;27;20163;-48
2024/03/14 06:58:35;;;;;;;16.23;3.15;;;20.00;70.80;;;;;;5100411;28;20076;-47
2024/03/14 07:01:01;;;;;;;17.33;3.30;;;20.00;71.30;;;;;;5092305;28;20069;-46
2024/03/14 07:03:28;;;;;;;18.50;3.30;;;20.00;71.20;;;;;;5095066;27;20092;-48
2024/03/14 07:05:57;;;;;;;13.05;3.53;;;20.00;71.10;;;;;;5115788;27;20068;-47
2024/03/14 07:08:27;;;;;;;17.50;4.90;;;19.80;71.50;;;;;;5107902;28;20497;-47
2024/03/14 07:10:54;;;;;;;28.17;4.78;;;19.90;72.20;;;;;;5097970;28;20573;-46
2024/03/14 07:13:21;;;;;;;11.10;3.55;;;19.80;72.30;;;;;;5122252;27;20078;-47
2024/03/14 07:15:48;;;;;;;15.65;2.92;;;19.70;72.60;;;;;;5109538;28;20538;-47
2024/03/14 07:18:16;;;;;;;16.92;3.08;;;19.60;73.00;;;;;;5110401;28;20075;-45
2024/03/14 07:20:44;;;;;;;13.80;3.05;;;19.60;73.30;;;;;;5109949;28;20106;-46
2024/03/14 07:23:11;;;;;;;16.25;3.33;;;19.50;73.40;;;;;;5111958;28;20075;-46
2024/03/14 07:25:37;;;;;;;14.30;3.00;;;19.40;74.10;;;;;;5109652;28;20452;-47
2024/03/14 07:28:09;;;;;;;9.98;2.90;;;19.20;74.50;;;;;;5112017;28;20098;-48
2024/03/14 07:30:36;;;;;;;15.38;3.30;;;19.10;74.80;;;;;;5112141;28;20092;-50
2024/03/14 07:33:02;;;;;;;11.80;2.40;;;19.10;75.20;;;;;;5110824;28;20151;-50
2024/03/14 07:35:28;;;;;;;10.65;2.75;;;19.20;74.50;;;;;;5112379;28;20073;-47
2024/03/14 07:37:55;;;;;;;18.00;3.00;;;19.20;74.40;;;;;;5118197;28;20068;-52
2024/03/14 07:40:32;;;;;;;13.88;3.30;;;19.10;75.30;;;;;;5099150;27;20177;-49
2024/03/14 07:42:59;;;;;;;12.70;2.95;;;18.90;75.70;;;;;;5098278;28;20069;-47
2024/03/14 07:45:26;;;;;;;11.70;2.80;;;18.90;75.70;;;;;;5118622;27;20067;-49
2024/03/14 07:47:52;;;;;;;18.40;3.35;;;19.00;75.30;;;;;;5139620;27;20086;-51
2024/03/14 07:50:19;;;;;;;10.27;2.90;;;18.90;75.50;;;;;;5122306;27;20096;-46
2024/03/14 07:52:45;;;;;;;9.23;2.60;;;18.80;75.30;;;;;;5116559;27;20075;-48
2024/03/14 07:55:12;;;;;;;17.63;3.05;;;18.70;75.30;;;;;;5116152;27;20064;-47
2024/03/14 07:57:38;;;;;;;11.13;2.92;;;18.70;74.90;;;;;;5118688;27;20075;-46
2024/03/14 08:00:09;;;;;;;14.90;2.67;;;18.80;74.40;;;;;;5098011;27;20068;-46
2024/03/14 08:02:39;;;;;;;10.40;2.72;;;18.70;73.90;;;;;;5116549;27;20083;-47
2024/03/14 08:05:08;;;;;;;10.75;2.60;;;18.70;73.10;;;;;;5114700;27;20072;-47
2024/03/14 08:07:38;;;;;;;10.52;2.95;;;18.70;73.10;;;;;;5117619;27;20072;-47
2024/03/14 08:10:08;;;;;;;9.38;2.88;;;18.70;72.40;;;;;;5122688;27;20117;-51
2024/03/14 08:12:35;;;;;;;10.38;2.63;;;18.60;72.20;;;;;;5122772;27;20075;-51
2024/03/14 08:15:16;;;;;;;12.50;3.42;;;18.50;72.40;;;;;;5130589;27;20073;-49
2024/03/14 08:17:45;;;;;;;9.85;2.95;;;18.50;72.20;;;;;;5111375;27;20079;-47
2024/03/14 08:20:15;;;;;;;9.32;2.65;;;18.50;72.30;;;;;;5125570;27;20107;-46
2024/03/14 08:22:45;;;;;;;13.32;2.90;;;18.50;72.20;;;;;;5122659;27;20064;-49
2024/03/14 08:25:17;;;;;;;17.20;14.45;;;18.50;72.40;;;;;;5131281;27;20111;-49
2024/03/14 08:27:44;;;;;;;18.02;16.27;;;18.40;72.50;;;;;;5118504;27;20498;-47
2024/03/14 08:30:11;;;;;;;22.58;18.40;;;18.40;72.80;;;;;;5122421;27;20542;-51
2024/03/14 08:32:39;;;;;;;8.27;2.65;;;18.40;72.70;;;;;;5130458;27;20091;-48
2024/03/14 08:35:06;;;;;;;24.80;18.52;;;18.30;73.00;;;;;;5112766;27;20064;-47
2024/03/14 08:37:33;;;;;;;8.27;3.20;;;18.30;73.50;;;;;;5119438;27;20526;-49
2024/03/14 08:40:00;;;;;;;10.02;2.40;;;18.20;73.60;;;;;;5137172;27;20071;-46
2024/03/14 08:42:32;;;;;;;12.57;2.75;;;18.20;73.80;;;;;;5133574;27;20170;-49
2024/03/14 08:45:03;;;;;;;39.83;19.98;;;18.20;73.90;;;;;;5127639;27;20510;-49
2024/03/14 08:47:30;;;;;;;34.33;19.75;;;18.20;73.90;;;;;;5122159;27;20085;-48
2024/03/14 08:49:59;;;;;;;11.27;3.00;;;18.20;74.20;;;;;;5127215;27;20106;-48
2024/03/14 08:52:29;;;;;;;6.93;2.60;;;18.20;74.40;;;;;;5109672;27;20068;-52
2024/03/14 08:54:56;;;;;;;9.68;2.78;;;18.20;75.00;;;;;;5106396;27;20080;-49
2024/03/14 08:57:25;;;;;;;9.90;2.88;;;18.20;74.50;;;;;;5102787;27;20536;-47
2024/03/14 08:59:55;;;;;;;11.63;3.15;;;18.20;74.50;;;;;;5122659;27;20437;-46
2024/03/14 09:02:27;;;;;;;11.70;3.00;;;18.20;74.40;;;;;;5118191;27;20159;-46
2024/03/14 09:04:53;;;;;;;6.63;2.38;;;18.20;74.70;;;;;;5124033;27;20197;-47
2024/03/14 09:07:20;;;;;;;10.57;3.20;;;18.10;75.10;;;;;;5119771;27;20075;-46
2024/03/14 09:09:46;;;;;;;9.63;3.13;;;18.10;75.00;;;;;;5123010;27;20075;-47
2024/03/14 09:12:24;;;;;;;10.70;3.17;;;18.00;75.20;;;;;;5114991;27;20187;-46
2024/03/14 09:14:54;;;;;;;8.90;3.13;;;18.00;75.30;;;;;;5134973;27;20071;-46
2024/03/14 09:17:21;;;;;;;9.23;3.03;;;18.00;75.30;;;;;;5112109;27;20075;-45
2024/03/14 09:19:47;;;;;;;14.73;3.85;;;18.00;75.60;;;;;;5109615;27;20895;-47
2024/03/14 09:22:14;;;;;;;11.90;3.65;;;18.10;75.20;;;;;;5115796;27;20067;-45
2024/03/14 09:24:40;;;;;;;12.25;3.08;;;18.10;75.20;;;;;;5123344;27;20490;-46
2024/03/14 09:27:07;;;;;;;11.50;3.90;;;18.00;75.40;;;;;;5109999;27;20152;-48
2024/03/14 09:29:33;;;;;;;15.20;3.00;;;18.00;75.30;;;;;;5106476;27;20076;-48
2024/03/14 09:32:00;;;;;;;11.05;2.75;;;18.00;75.30;;;;;;5113865;28;20471;-47
2024/03/14 09:34:27;;;;;;;8.10;3.22;;;17.90;75.60;;;;;;5112092;27;20068;-45
2024/03/14 09:36:55;;;;;;;6.60;2.40;;;17.90;75.50;;;;;;5114259;28;20068;-45
2024/03/14 09:39:22;;;;;;;11.20;2.55;;;17.90;75.40;;;;;;5113913;28;20394;-46
2024/03/14 09:41:49;;;;;;;9.70;3.15;;;17.90;75.60;;;;;;5118919;27;20071;-48
2024/03/14 09:44:17;;;;;;;11.48;2.80;;;17.90;75.80;;;;;;5118489;27;20425;-47
2024/03/14 09:46:51;;;;;;;12.85;3.28;;;17.80;75.40;;;;;;5134470;27;20596;-46
2024/03/14 09:49:19;;;;;;;11.10;2.95;;;17.80;75.40;;;;;;5115710;27;20079;-46
2024/03/14 09:51:48;;;;;;;9.30;2.90;;;17.80;75.30;;;;;;5102580;28;20145;-46
2024/03/14 09:54:17;;;;;;;10.35;3.15;;;17.80;75.10;;;;;;5119031;27;20076;-47
2024/03/14 09:56:44;;;;;;;14.70;3.60;;;17.80;75.00;;;;;;5127642;27;20079;-51
2024/03/14 09:59:10;;;;;;;11.70;3.08;;;17.80;75.00;;;;;;5114608;27;20533;-47
2024/03/14 10:01:46;;;;;;;14.02;3.75;;;17.80;75.00;;;;;;5119302;27;20109;-47
2024/03/14 10:04:12;;;;;;;10.82;3.83;;;17.70;74.80;;;;;;5109107;27;20068;-48
2024/03/14 10:06:43;;;;;;;10.77;3.90;;;17.60;75.10;;;;;;5114709;27;20450;-46
2024/03/14 10:09:12;;;;;;;11.20;3.70;;;17.60;75.40;;;;;;5124688;27;20159;-49
2024/03/14 10:11:44;;;;;;;11.68;3.67;;;17.60;75.60;;;;;;5095824;27;20123;-47
2024/03/14 10:14:20;;;;;;;9.32;3.38;;;17.50;75.80;;;;;;5127390;27;20139;-47
2024/03/14 10:16:46;;;;;;;12.13;3.42;;;17.50;76.40;;;;;;5109714;27;20136;-48
2024/03/14 10:19:13;;;;;;;8.38;3.00;;;17.40;76.50;;;;;;5122526;27;20197;-46
2024/03/14 10:21:39;;;;;;;11.98;3.63;;;17.40;76.90;;;;;;5107233;27;20067;-47
2024/03/14 10:24:11;;;;;;;11.07;3.08;;;17.40;77.30;;;;;;5119892;27;20104;-47
2024/03/14 10:26:39;;;;;;;12.68;3.70;;;17.40;77.30;;;;;;5110122;27;20116;-54
2024/03/14 10:29:14;;;;;;;10.10;3.25;;;17.40;77.40;;;;;;5124426;27;20202;-45
2024/03/14 10:31:45;;;;;;;9.98;2.83;;;17.40;77.50;;;;;;5101332;27;20169;-46
2024/03/14 10:34:14;;;;;;;8.57;3.15;;;17.40;77.80;;;;;;5098604;27;20076;-48
2024/03/14 10:36:42;;;;;;;10.30;2.85;;;17.30;77.90;;;;;;5122462;27;20076;-47
2024/03/14 10:39:21;;;;;;;16.55;2.85;;;17.40;77.80;;;;;;5120076;27;20063;-49
2024/03/14 10:41:48;;;;;;;10.80;2.65;;;17.40;77.50;;;;;;5122002;27;20074;-50
2024/03/14 10:44:18;;;;;;;6.43;2.60;;;17.40;77.10;;;;;;5112824;27;20535;-47
2024/03/14 10:46:52;;;;;;;7.15;2.63;;;17.40;77.00;;;;;;5125696;27;20074;-46
2024/03/14 10:49:20;;;;;;;9.68;2.72;;;17.40;76.90;;;;;;5114734;27;20071;-47
2024/03/14 10:51:49;;;;;;;12.63;3.08;;;17.40;76.70;;;;;;5092977;28;20163;-46
2024/03/14 10:54:21;;;;;;;9.27;2.60;;;17.40;75.00;;;;;;5106306;28;20068;-47
2024/03/14 10:56:50;;;;;;;14.32;2.53;;;17.40;71.30;;;;;;5111321;27;20102;-46
2024/03/14 10:59:17;;;;;;;10.15;2.60;;;17.50;70.00;;;;;;5109384;28;20075;-48
2024/03/14 11:01:53;;;;;;;10.27;2.95;;;17.60;67.50;;;;;;5123445;27;20109;-46
2024/03/14 11:04:20;;;;;;;11.32;2.40;;;17.60;65.80;;;;;;5128560;27;20116;-48
2024/03/14 11:06:54;;;;;;;10.07;2.58;;;17.60;65.30;;;;;;5114712;27;20072;-48
2024/03/14 11:09:25;;;;;;;10.18;2.33;;;17.50;64.30;;;;;;5130760;27;20075;-47
2024/03/14 11:12:03;;;;;;;8.98;2.20;;;17.50;62.20;;;;;;5110214;27;20095;-47
2024/03/14 11:14:40;;;;;;;25.25;2.15;;;17.60;60.30;;;;;;5116196;27;20159;-46
2024/03/14 11:17:10;;;;;;;21.55;2.40;;;17.60;59.20;;;;;;5104341;27;20477;-45
2024/03/14 11:19:40;;;;;;;16.92;2.30;;;17.60;57.60;;;;;;5123262;27;20082;-45
2024/03/14 11:22:08;;;;;;;11.93;1.88;;;17.50;56.10;;;;;;5116961;27;20068;-46
2024/03/14 11:24:36;;;;;;;15.00;2.08;;;17.60;54.40;;;;;;5119042;27;20099;-47
2024/03/14 11:27:04;;;;;;;17.15;2.33;;;17.60;54.20;;;;;;5111336;27;20210;-47
2024/03/14 11:29:33;;;;;;;10.38;1.98;;;17.60;54.30;;;;;;5125529;27;20147;-46
2024/03/14 11:32:16;;;;;;;10.85;1.77;;;17.60;53.80;;;;;;5111216;27;20188;-46
2024/03/14 11:34:43;;;;;;;17.33;2.38;;;17.60;53.60;;;;;;5097607;28;20171;-46
2024/03/14 11:37:09;;;;;;;20.85;2.05;;;17.60;53.90;;;;;;5119660;28;20072;-46
2024/03/14 11:39:39;;;;;;;20.00;1.75;;;17.50;54.00;;;;;;5117015;28;20120;-47
2024/03/14 11:42:11;;;;;;;29.33;2.28;;;17.50;53.90;;;;;;5124418;28;20083;-48
2024/03/14 11:44:42;;;;;;;20.40;2.38;;;17.40;53.90;;;;;;5120055;27;21059;-47
2024/03/14 11:47:13;;;;;;;14.75;2.22;;;17.40;54.20;;;;;;5122529;28;20110;-50
2024/03/14 11:49:43;;;;;;;14.85;1.77;;;17.40;53.20;;;;;;5121424;27;20068;-50
2024/03/14 11:52:15;;;;;;;15.85;2.28;;;17.40;52.90;;;;;;5127236;27;20087;-46
2024/03/14 11:54:42;;;;;;;20.52;1.85;;;17.40;52.20;;;;;;5126717;27;20107;-47
2024/03/14 11:57:14;;;;;;;17.70;2.33;;;17.40;51.80;;;;;;5123096;27;20067;-46
2024/03/14 11:59:41;;;;;;;25.67;2.22;;;17.40;51.40;;;;;;5097693;28;20126;-47
2024/03/14 12:02:10;;;;;;;27.35;2.60;;;17.50;50.60;;;;;;5129968;28;20059;-48
2024/03/14 12:04:36;;;;;;;32.92;2.70;;;17.50;50.00;;;;;;5101990;27;20095;-47
2024/03/14 12:07:07;;;;;;;35.55;2.45;;;17.50;49.00;;;;;;5112512;28;20781;-48
2024/03/14 12:09:35;;;;;;;37.33;3.33;;;17.50;48.70;;;;;;5121045;27;20064;-46
2024/03/14 12:12:03;;;;;;;24.92;3.00;;;17.60;48.30;;;;;;5120968;27;20096;-47
2024/03/14 12:14:29;;;;;;;34.55;3.10;;;17.60;47.70;;;;;;5132122;27;20080;-46
2024/03/14 12:16:55;;;;;;;29.65;3.38;;;17.60;47.80;;;;;;5115302;27;20064;-49
2024/03/14 12:19:22;;;;;;;25.23;2.95;;;17.50;47.30;;;;;;5113302;28;20067;-49
2024/03/14 12:21:55;;;;;;;32.22;2.65;;;17.60;47.00;;;;;;5116650;27;20087;-47
2024/03/14 12:24:24;;;;;;;36.10;2.88;;;17.50;46.20;;;;;;5102720;27;20072;-46
2024/03/14 12:26:57;;;;;;;30.60;2.88;;;17.50;45.70;;;;;;5122975;27;20160;-45
2024/03/14 12:29:26;;;;;;;30.85;2.70;;;17.50;45.00;;;;;;5095747;28;21042;-46
2024/03/14 12:31:57;;;;;;;36.72;3.92;;;17.50;44.20;;;;;;5129364;27;20140;-52
2024/03/14 12:34:25;;;;;;;46.00;3.75;;;17.50;43.70;;;;;;5133477;27;20154;-46
2024/03/14 12:36:54;;;;;;;46.03;3.90;;;17.50;43.80;;;;;;5107351;27;20151;-47
2024/03/14 12:39:25;;;;;;;40.22;3.92;;;17.40;43.60;;;;;;5120547;27;20178;-48
2024/03/14 12:41:53;;;;;;;30.00;3.15;;;17.40;43.60;;;;;;5125392;27;20112;-46
2024/03/14 12:44:20;;;;;;;57.47;3.88;;;17.40;43.30;;;;;;5132361;27;20068;-46
2024/03/14 12:46:47;;;;;;;55.60;3.83;;;17.40;42.90;;;;;;5120112;27;20068;-48